Time;durP1;ratioP1;P1;durP2;ratioP2;P2;SDS_P1;SDS_P2;PMS_P1;PMS_P2;Temp;Humidity;BMP_temperature;BMP_pressure;BME280_temperature;BME280_humidity;BME280_pressure;Samples;Min_cycle;Max_cycle;Signal;HPM_P1;HPM_P2
2022/06/11 00:00:53;;;;;;;8.40;7.90;;;;;;;;;;5062877;28;24486;-47
2022/06/11 00:03:18;;;;;;;8.80;8.10;;;;;;;;;;5053738;28;24979;-47
2022/06/11 00:05:44;;;;;;;7.90;7.40;;;;;;;;;;5059686;28;24415;-47
2022/06/11 00:08:09;;;;;;;7.90;7.40;;;;;;;;;;5063304;28;24423;-48
2022/06/11 00:10:34;;;;;;;7.63;7.13;;;;;;;;;;5064921;28;24474;-46
2022/06/11 00:13:00;;;;;;;8.00;7.40;;;;;;;;;;5058518;28;25222;-48
2022/06/11 00:15:25;;;;;;;8.70;8.10;;;;;;;;;;5059522;28;24469;-47
2022/06/11 00:17:52;;;;;;;8.77;8.18;;;;;;;;;;5060751;28;24411;-47
2022/06/11 00:20:17;;;;;;;8.07;7.47;;;;;;;;;;5063706;28;24545;-47
2022/06/11 00:22:42;;;;;;;8.07;7.47;;;;;;;;;;5060562;28;24527;-47
2022/06/11 00:25:08;;;;;;;8.00;7.40;;;;;;;;;;5062423;28;24401;-48
2022/06/11 00:27:33;;;;;;;7.60;7.10;;;;;;;;;;5061822;28;24480;-46
2022/06/11 00:29:58;;;;;;;7.88;7.30;;;;;;;;;;5063003;28;24956;-47
2022/06/11 00:32:23;;;;;;;8.97;8.27;;;;;;;;;;5060011;28;24994;-47
2022/06/11 00:34:49;;;;;;;8.90;8.20;;;;;;;;;;5061503;28;24425;-47
2022/06/11 00:37:17;;;;;;;8.75;8.05;;;;;;;;;;5058907;28;24476;-46
2022/06/11 00:39:42;;;;;;;8.70;8.10;;;;;;;;;;5060621;28;24427;-46
2022/06/11 00:42:12;;;;;;;8.83;8.13;;;;;;;;;;5064001;28;24942;-46
2022/06/11 00:44:38;;;;;;;9.40;8.40;;;;;;;;;;5055159;28;24441;-46
2022/06/11 00:47:23;;;;;;;8.95;8.25;;;;;;;;;;5064053;28;24517;-47
2022/06/11 00:49:49;;;;;;;9.00;8.40;;;;;;;;;;5076656;28;24505;-46
2022/06/11 00:52:17;;;;;;;8.75;8.15;;;;;;;;;;5067640;28;25002;-46
2022/06/11 00:54:44;;;;;;;8.70;8.00;;;;;;;;;;5057487;28;24422;-46
2022/06/11 00:57:10;;;;;;;8.93;8.32;;;;;;;;;;5060255;28;24430;-47
2022/06/11 00:59:41;;;;;;;8.67;8.07;;;;;;;;;;5062128;28;24445;-46
2022/06/11 01:02:07;;;;;;;8.30;7.70;;;;;;;;;;5068216;28;24450;-46
2022/06/11 01:04:48;;;;;;;9.30;8.70;;;;;;;;;;5065295;28;25013;-47
2022/06/11 01:07:38;;;;;;;8.07;7.57;;;;;;;;;;5055704;28;24410;-47
2022/06/11 01:10:06;;;;;;;8.50;7.90;;;;;;;;;;5062370;28;24541;-47
2022/06/11 01:12:47;;;;;;;8.10;7.50;;;;;;;;;;5061311;28;24925;-47
2022/06/11 01:15:23;;;;;;;8.97;8.27;;;;;;;;;;5058696;28;24874;-47
2022/06/11 01:18:04;;;;;;;8.63;8.00;;;;;;;;;;5069783;28;24438;-47
2022/06/11 01:20:50;;;;;;;9.02;8.32;;;;;;;;;;5068781;28;24827;-47
2022/06/11 01:23:28;;;;;;;8.13;7.57;;;;;;;;;;5071178;28;24425;-47
2022/06/11 01:26:02;;;;;;;8.70;8.00;;;;;;;;;;5064271;28;24433;-47
2022/06/11 01:28:46;;;;;;;8.90;8.20;;;;;;;;;;5058278;28;25015;-47
2022/06/11 01:31:15;;;;;;;8.40;7.80;;;;;;;;;;5063882;28;24573;-47
2022/06/11 01:33:44;;;;;;;9.40;8.60;;;;;;;;;;5064738;28;24510;-47
2022/06/11 01:36:11;;;;;;;8.73;8.02;;;;;;;;;;5060233;28;24531;-47
2022/06/11 01:38:38;;;;;;;8.90;8.20;;;;;;;;;;5056273;28;24480;-47
2022/06/11 01:41:22;;;;;;;8.73;8.07;;;;;;;;;;5068039;28;24417;-46
2022/06/11 01:43:48;;;;;;;8.50;7.80;;;;;;;;;;5059584;28;24864;-47
2022/06/11 01:46:24;;;;;;;8.20;7.70;;;;;;;;;;5057538;28;25369;-47
2022/06/11 01:48:51;;;;;;;8.68;8.13;;;;;;;;;;5066976;28;24976;-47
2022/06/11 01:51:23;;;;;;;8.25;7.65;;;;;;;;;;5059485;28;24427;-48
2022/06/11 01:53:59;;;;;;;9.23;8.63;;;;;;;;;;5056516;28;24788;-47
2022/06/11 01:56:38;;;;;;;8.80;8.20;;;;;;;;;;5052176;28;24434;-47
2022/06/11 01:59:22;;;;;;;7.88;7.30;;;;;;;;;;5055726;28;24427;-47
2022/06/11 02:02:14;;;;;;;7.45;7.05;;;;;;;;;;5067321;28;24518;-47
2022/06/11 02:04:49;;;;;;;7.20;6.80;;;;;;;;;;5055141;28;25040;-48
2022/06/11 02:07:26;;;;;;;7.18;6.68;;;;;;;;;;5057925;28;24785;-47
2022/06/11 02:09:58;;;;;;;7.20;6.80;;;;;;;;;;5065446;28;24680;-47
2022/06/11 02:12:28;;;;;;;7.50;7.00;;;;;;;;;;5062885;28;24434;-47
2022/06/11 02:14:59;;;;;;;7.30;6.90;;;;;;;;;;5069063;28;24626;-47
2022/06/11 02:17:26;;;;;;;7.50;7.00;;;;;;;;;;5056781;28;24480;-47
2022/06/11 02:19:59;;;;;;;7.70;7.20;;;;;;;;;;5057236;28;24491;-47
2022/06/11 02:22:34;;;;;;;8.00;7.50;;;;;;;;;;5057227;28;24942;-47
2022/06/11 02:25:03;;;;;;;7.72;7.22;;;;;;;;;;5064124;28;24422;-47
2022/06/11 02:27:29;;;;;;;8.00;7.60;;;;;;;;;;5063390;28;24752;-47
2022/06/11 02:29:55;;;;;;;7.82;7.32;;;;;;;;;;5050462;28;24468;-47
2022/06/11 02:32:22;;;;;;;7.80;7.30;;;;;;;;;;5069240;28;24520;-47
2022/06/11 02:34:49;;;;;;;7.80;7.30;;;;;;;;;;5063162;28;24422;-48
2022/06/11 02:37:23;;;;;;;7.50;7.10;;;;;;;;;;5069181;28;24430;-48
2022/06/11 02:39:49;;;;;;;7.50;7.10;;;;;;;;;;5063338;28;24537;-47
2022/06/11 02:42:15;;;;;;;8.30;7.80;;;;;;;;;;5058971;28;24823;-47
2022/06/11 02:44:41;;;;;;;8.00;7.50;;;;;;;;;;5063449;28;24447;-48
2022/06/11 02:47:06;;;;;;;7.70;7.30;;;;;;;;;;5068164;28;24425;-48
2022/06/11 02:49:34;;;;;;;7.70;7.20;;;;;;;;;;5063958;28;24845;-47
2022/06/11 02:52:01;;;;;;;7.40;7.00;;;;;;;;;;5066602;28;24773;-47
2022/06/11 02:54:27;;;;;;;7.50;7.10;;;;;;;;;;5072168;28;24437;-48
2022/06/11 02:56:54;;;;;;;7.77;7.27;;;;;;;;;;5066783;28;24781;-47
2022/06/11 02:59:20;;;;;;;7.50;7.10;;;;;;;;;;5073217;28;24442;-47
2022/06/11 03:01:45;;;;;;;7.70;7.30;;;;;;;;;;5074958;28;24415;-47
2022/06/11 03:04:11;;;;;;;8.17;7.63;;;;;;;;;;5057904;28;24491;-47
2022/06/11 03:06:40;;;;;;;7.90;7.40;;;;;;;;;;5059448;28;24433;-47
2022/06/11 03:09:06;;;;;;;8.05;7.65;;;;;;;;;;5067711;28;24433;-47
2022/06/11 03:11:31;;;;;;;8.20;7.70;;;;;;;;;;5065820;28;24459;-46
2022/06/11 03:13:56;;;;;;;8.70;8.20;;;;;;;;;;5068420;28;24498;-47
2022/06/11 03:16:21;;;;;;;8.10;7.60;;;;;;;;;;5062937;28;24972;-46
2022/06/11 03:18:46;;;;;;;7.77;7.27;;;;;;;;;;5070422;28;24426;-46
2022/06/11 03:21:12;;;;;;;8.07;7.50;;;;;;;;;;5079242;28;24870;-48
2022/06/11 03:23:37;;;;;;;7.78;7.18;;;;;;;;;;5068149;28;24414;-48
2022/06/11 03:26:02;;;;;;;8.40;7.90;;;;;;;;;;5069984;28;24511;-47
2022/06/11 03:28:28;;;;;;;8.23;7.73;;;;;;;;;;5063285;28;24457;-47
2022/06/11 03:30:53;;;;;;;7.72;7.22;;;;;;;;;;5070475;28;24955;-47
2022/06/11 03:33:19;;;;;;;7.60;7.10;;;;;;;;;;5056341;28;24533;-47
2022/06/11 03:35:46;;;;;;;7.47;6.97;;;;;;;;;;5065679;28;25211;-48
2022/06/11 03:38:11;;;;;;;8.13;7.53;;;;;;;;;;5060538;28;24505;-47
2022/06/11 03:40:36;;;;;;;7.40;7.00;;;;;;;;;;5063973;28;24442;-47
2022/06/11 03:43:02;;;;;;;7.40;6.90;;;;;;;;;;5066044;28;24948;-47
2022/06/11 03:45:27;;;;;;;8.88;8.18;;;;;;;;;;5057166;28;25011;-48
2022/06/11 03:47:53;;;;;;;8.83;8.23;;;;;;;;;;5064500;28;24481;-46
2022/06/11 03:50:20;;;;;;;8.33;7.73;;;;;;;;;;5070060;28;24565;-46
2022/06/11 03:52:45;;;;;;;7.60;7.00;;;;;;;;;;5061602;28;24438;-46
2022/06/11 03:55:10;;;;;;;7.40;6.90;;;;;;;;;;5057501;28;24462;-46
2022/06/11 03:57:36;;;;;;;7.60;7.10;;;;;;;;;;5063904;28;24495;-47
2022/06/11 04:00:03;;;;;;;7.67;7.27;;;;;;;;;;5074607;28;24968;-47
2022/06/11 04:02:28;;;;;;;7.65;7.10;;;;;;;;;;5063382;28;24430;-46
2022/06/11 04:04:53;;;;;;;6.83;6.37;;;;;;;;;;5061266;28;24421;-47
2022/06/11 04:07:18;;;;;;;6.93;6.53;;;;;;;;;;5072137;28;24506;-47
2022/06/11 04:09:45;;;;;;;6.60;6.20;;;;;;;;;;5060757;28;24511;-47
2022/06/11 04:12:12;;;;;;;6.93;6.43;;;;;;;;;;5057536;28;24832;-46
2022/06/11 04:14:38;;;;;;;6.65;6.20;;;;;;;;;;5075949;28;24566;-46
2022/06/11 04:17:08;;;;;;;6.73;6.23;;;;;;;;;;5062036;28;25041;-47
2022/06/11 04:19:35;;;;;;;6.68;6.28;;;;;;;;;;5058898;28;24733;-46
2022/06/11 04:22:01;;;;;;;6.40;6.00;;;;;;;;;;5071506;28;24506;-46
2022/06/11 04:24:27;;;;;;;6.80;6.40;;;;;;;;;;5066560;28;24534;-46
2022/06/11 04:26:54;;;;;;;6.03;5.63;;;;;;;;;;5069233;28;24418;-47
2022/06/11 04:29:20;;;;;;;6.60;6.10;;;;;;;;;;5058564;28;24472;-47
2022/06/11 04:31:46;;;;;;;6.20;5.80;;;;;;;;;;5060448;28;24517;-47
2022/06/11 04:34:12;;;;;;;6.20;5.80;;;;;;;;;;5059092;28;25283;-46
2022/06/11 04:36:38;;;;;;;5.80;5.40;;;;;;;;;;5053569;28;24569;-47
2022/06/11 04:39:04;;;;;;;6.07;5.68;;;;;;;;;;5058943;28;24438;-48
2022/06/11 04:41:30;;;;;;;5.70;5.40;;;;;;;;;;5066425;28;24498;-47
2022/06/11 04:43:55;;;;;;;6.07;5.70;;;;;;;;;;5066478;28;24892;-47
2022/06/11 04:46:20;;;;;;;5.70;5.30;;;;;;;;;;5057362;28;24453;-47
2022/06/11 04:48:46;;;;;;;5.80;5.40;;;;;;;;;;5056270;28;24944;-48
2022/06/11 04:51:11;;;;;;;5.80;5.40;;;;;;;;;;5064468;28;24430;-47
2022/06/11 04:53:36;;;;;;;5.90;5.40;;;;;;;;;;5067903;28;24465;-47
2022/06/11 04:56:02;;;;;;;5.60;5.30;;;;;;;;;;5059481;28;24505;-47
2022/06/11 04:58:27;;;;;;;5.63;5.22;;;;;;;;;;5058039;28;25077;-48
2022/06/11 05:00:52;;;;;;;5.50;5.10;;;;;;;;;;5060199;28;24422;-46
2022/06/11 05:03:17;;;;;;;5.60;5.15;;;;;;;;;;5067168;28;24483;-47
2022/06/11 05:05:43;;;;;;;5.50;5.10;;;;;;;;;;5058479;28;24860;-47
2022/06/11 05:08:08;;;;;;;5.32;4.93;;;;;;;;;;5055039;28;24473;-47
2022/06/11 05:10:34;;;;;;;5.20;4.90;;;;;;;;;;5062045;28;24441;-47
2022/06/11 05:12:59;;;;;;;5.00;4.70;;;;;;;;;;5056939;28;25003;-46
2022/06/11 05:15:25;;;;;;;4.70;4.40;;;;;;;;;;5056306;28;24426;-47
2022/06/11 05:17:50;;;;;;;4.70;4.40;;;;;;;;;;5059159;28;24415;-47
2022/06/11 05:20:15;;;;;;;4.90;4.50;;;;;;;;;;5057913;28;24431;-47
2022/06/11 05:22:41;;;;;;;3.80;3.60;;;;;;;;;;5060785;28;24499;-46
2022/06/11 05:25:07;;;;;;;4.47;4.17;;;;;;;;;;5055008;28;24447;-46
2022/06/11 05:27:33;;;;;;;4.40;4.10;;;;;;;;;;5061186;28;24939;-47
2022/06/11 05:30:00;;;;;;;4.23;3.93;;;;;;;;;;5063532;28;24422;-47
2022/06/11 05:32:27;;;;;;;4.80;4.50;;;;;;;;;;5063065;28;24807;-47
2022/06/11 05:34:53;;;;;;;4.53;4.13;;;;;;;;;;5059643;28;24406;-47
2022/06/11 05:37:18;;;;;;;4.50;4.20;;;;;;;;;;5053783;28;24530;-46
2022/06/11 05:39:44;;;;;;;4.37;4.00;;;;;;;;;;5056863;28;24518;-47
2022/06/11 05:42:10;;;;;;;4.20;3.90;;;;;;;;;;5067025;28;24479;-46
2022/06/11 05:44:35;;;;;;;4.47;4.10;;;;;;;;;;5063616;28;25058;-47
2022/06/11 05:47:00;;;;;;;4.50;4.20;;;;;;;;;;5066670;28;24486;-47
2022/06/11 05:49:28;;;;;;;4.20;3.90;;;;;;;;;;5049236;28;24452;-47
2022/06/11 05:51:57;;;;;;;4.25;4.03;;;;;;;;;;5051596;28;24425;-47
2022/06/11 05:54:24;;;;;;;5.00;4.60;;;;;;;;;;5063600;28;24480;-47
2022/06/11 05:56:49;;;;;;;4.07;3.78;;;;;;;;;;5074729;28;24420;-47
2022/06/11 05:59:17;;;;;;;3.88;3.67;;;;;;;;;;5077507;28;24780;-47
2022/06/11 06:01:43;;;;;;;4.07;3.87;;;;;;;;;;5055698;28;24435;-47
2022/06/11 06:04:08;;;;;;;3.95;3.65;;;;;;;;;;5066185;28;24414;-47
2022/06/11 06:06:33;;;;;;;3.70;3.40;;;;;;;;;;5063247;28;24522;-46
2022/06/11 06:08:59;;;;;;;4.03;3.83;;;;;;;;;;5066935;28;24414;-46
2022/06/11 06:11:25;;;;;;;4.07;3.87;;;;;;;;;;5057824;28;24431;-46
2022/06/11 06:13:51;;;;;;;3.60;3.30;;;;;;;;;;5065147;28;25014;-46
2022/06/11 06:16:17;;;;;;;3.80;3.60;;;;;;;;;;5056303;28;24422;-46
2022/06/11 06:18:43;;;;;;;3.90;3.60;;;;;;;;;;5057853;28;24550;-47
2022/06/11 06:21:08;;;;;;;4.00;3.70;;;;;;;;;;5059749;28;24514;-47
2022/06/11 06:23:34;;;;;;;5.53;5.03;;;;;;;;;;5063551;28;24513;-46
2022/06/11 06:25:59;;;;;;;5.00;4.60;;;;;;;;;;5073025;28;24442;-46
2022/06/11 06:28:24;;;;;;;4.70;4.30;;;;;;;;;;5074104;28;25063;-47
2022/06/11 06:30:49;;;;;;;4.93;4.63;;;;;;;;;;5062577;28;24483;-47
2022/06/11 06:33:15;;;;;;;4.73;4.33;;;;;;;;;;5058501;28;24484;-47
2022/06/11 06:35:40;;;;;;;3.70;3.50;;;;;;;;;;5065155;28;24426;-47
2022/06/11 06:38:06;;;;;;;4.40;4.10;;;;;;;;;;5055802;28;24785;-47
2022/06/11 06:40:31;;;;;;;4.20;3.90;;;;;;;;;;5068721;28;24521;-47
2022/06/11 06:42:56;;;;;;;4.07;3.87;;;;;;;;;;5062832;28;24506;-47
2022/06/11 06:45:21;;;;;;;3.90;3.70;;;;;;;;;;5062051;28;24455;-47
2022/06/11 06:47:46;;;;;;;5.30;3.80;;;;;;;;;;5070493;28;24442;-46
2022/06/11 06:50:12;;;;;;;4.30;4.00;;;;;;;;;;5074340;28;24849;-46
2022/06/11 06:52:37;;;;;;;4.40;4.00;;;;;;;;;;5069865;28;24462;-47
2022/06/11 06:55:02;;;;;;;3.70;3.50;;;;;;;;;;5061754;28;24437;-47
2022/06/11 06:57:27;;;;;;;4.07;3.60;;;;;;;;;;5058061;28;24722;-47
2022/06/11 06:59:52;;;;;;;4.40;4.00;;;;;;;;;;5074067;28;24535;-48
2022/06/11 07:02:18;;;;;;;4.20;3.90;;;;;;;;;;5071156;28;25146;-47
2022/06/11 07:04:43;;;;;;;4.00;3.60;;;;;;;;;;5065443;28;24440;-47
2022/06/11 07:07:13;;;;;;;3.80;3.60;;;;;;;;;;5064404;28;24418;-47
2022/06/11 07:09:41;;;;;;;3.97;3.67;;;;;;;;;;5067291;28;24427;-47
2022/06/11 07:12:06;;;;;;;4.72;4.43;;;;;;;;;;5059634;28;24847;-45
2022/06/11 07:14:31;;;;;;;4.40;4.10;;;;;;;;;;5059935;28;25052;-46
2022/06/11 07:16:59;;;;;;;4.60;4.30;;;;;;;;;;5062526;28;24415;-47
2022/06/11 07:19:28;;;;;;;3.80;3.55;;;;;;;;;;5063546;28;24426;-46
2022/06/11 07:21:55;;;;;;;4.30;3.90;;;;;;;;;;5065335;28;24997;-45
2022/06/11 07:24:22;;;;;;;3.90;3.60;;;;;;;;;;5064552;28;24916;-47
2022/06/11 07:26:49;;;;;;;4.13;3.90;;;;;;;;;;5052296;28;24757;-47
2022/06/11 07:29:27;;;;;;;3.90;3.50;;;;;;;;;;5056348;28;24419;-49
2022/06/11 07:31:54;;;;;;;5.72;4.00;;;;;;;;;;5060904;28;24398;-48
2022/06/11 07:34:19;;;;;;;3.75;3.45;;;;;;;;;;5063827;28;24410;-47
2022/06/11 07:36:45;;;;;;;4.20;3.80;;;;;;;;;;5060946;28;24429;-48
2022/06/11 07:39:10;;;;;;;3.90;3.60;;;;;;;;;;5060090;28;24800;-47
2022/06/11 07:41:35;;;;;;;4.30;4.00;;;;;;;;;;5059928;28;24394;-48
2022/06/11 07:44:01;;;;;;;4.37;4.07;;;;;;;;;;5062199;28;25018;-47
2022/06/11 07:46:26;;;;;;;4.20;4.00;;;;;;;;;;5061590;28;24418;-48
2022/06/11 07:48:51;;;;;;;4.00;3.70;;;;;;;;;;5061564;28;24453;-48
2022/06/11 07:51:19;;;;;;;3.72;3.50;;;;;;;;;;5062013;28;24433;-48
2022/06/11 07:53:48;;;;;;;3.47;3.17;;;;;;;;;;5056980;28;24789;-47
2022/06/11 07:56:13;;;;;;;3.75;3.45;;;;;;;;;;5052524;28;24442;-47
2022/06/11 07:58:38;;;;;;;4.50;3.90;;;;;;;;;;5057840;28;24438;-47
2022/06/11 08:01:05;;;;;;;3.80;3.40;;;;;;;;;;5059590;28;24419;-48
2022/06/11 08:03:32;;;;;;;3.57;3.27;;;;;;;;;;5059177;28;24983;-47
2022/06/11 08:05:57;;;;;;;5.75;4.35;;;;;;;;;;5061325;28;24429;-47
2022/06/11 08:08:22;;;;;;;4.70;4.20;;;;;;;;;;5059796;28;25278;-47
2022/06/11 08:10:48;;;;;;;4.30;4.00;;;;;;;;;;5058292;28;25149;-47
2022/06/11 08:13:13;;;;;;;4.10;3.70;;;;;;;;;;5057306;28;24982;-47
2022/06/11 08:15:39;;;;;;;4.10;3.75;;;;;;;;;;5060523;28;24434;-47
2022/06/11 08:18:04;;;;;;;3.90;3.60;;;;;;;;;;5060044;28;24476;-48
2022/06/11 08:20:31;;;;;;;6.50;4.00;;;;;;;;;;5062653;28;24884;-48
2022/06/11 08:22:57;;;;;;;4.22;3.83;;;;;;;;;;5062134;28;24402;-47
2022/06/11 08:25:22;;;;;;;3.57;3.37;;;;;;;;;;5058027;28;25096;-47
2022/06/11 08:27:51;;;;;;;3.92;3.63;;;;;;;;;;5056677;28;24493;-48
2022/06/11 08:30:17;;;;;;;4.60;3.60;;;;;;;;;;5061164;28;25033;-48
2022/06/11 08:32:43;;;;;;;3.50;3.20;;;;;;;;;;5062003;28;24785;-45
2022/06/11 08:35:09;;;;;;;2.92;2.70;;;;;;;;;;5059721;28;24429;-48
2022/06/11 08:37:34;;;;;;;2.90;2.70;;;;;;;;;;5058306;28;25558;-46
2022/06/11 08:39:59;;;;;;;3.40;3.20;;;;;;;;;;5061594;28;24494;-46
2022/06/11 08:42:33;;;;;;;2.93;2.60;;;;;;;;;;5059653;28;24427;-47
2022/06/11 08:45:02;;;;;;;2.93;2.73;;;;;;;;;;5056515;28;24996;-47
2022/06/11 08:47:29;;;;;;;2.40;2.20;;;;;;;;;;5056717;28;24514;-47
2022/06/11 08:49:56;;;;;;;3.33;2.40;;;;;;;;;;5056810;28;24434;-47
2022/06/11 08:52:23;;;;;;;2.70;2.50;;;;;;;;;;5063529;28;24434;-48
2022/06/11 08:54:48;;;;;;;2.80;2.60;;;;;;;;;;5064660;28;24633;-47
2022/06/11 08:57:23;;;;;;;2.60;2.40;;;;;;;;;;5054053;28;24434;-47
2022/06/11 08:59:58;;;;;;;2.42;2.22;;;;;;;;;;5060872;28;24462;-46
2022/06/11 09:02:36;;;;;;;2.75;2.55;;;;;;;;;;5059960;28;25050;-47
2022/06/11 09:05:07;;;;;;;2.40;2.20;;;;;;;;;;5046770;28;24425;-47
2022/06/11 09:07:38;;;;;;;1.90;1.80;;;;;;;;;;5064523;28;24433;-46
2022/06/11 09:10:19;;;;;;;2.60;2.40;;;;;;;;;;5054701;28;24496;-48
2022/06/11 09:12:52;;;;;;;2.40;2.20;;;;;;;;;;5059405;28;24463;-47
2022/06/11 09:15:30;;;;;;;2.30;2.10;;;;;;;;;;5063503;28;24430;-47
2022/06/11 09:18:05;;;;;;;2.20;2.00;;;;;;;;;;5061868;28;25097;-47
2022/06/11 09:20:42;;;;;;;2.60;2.40;;;;;;;;;;5058717;28;24431;-47
2022/06/11 09:23:18;;;;;;;2.00;1.90;;;;;;;;;;5059168;28;24414;-47
2022/06/11 09:25:50;;;;;;;2.50;2.30;;;;;;;;;;5058895;28;25019;-47
2022/06/11 09:28:18;;;;;;;2.53;2.30;;;;;;;;;;5060993;28;24960;-47
2022/06/11 09:30:47;;;;;;;2.30;2.20;;;;;;;;;;5072592;28;24798;-47
2022/06/11 09:33:31;;;;;;;2.10;2.00;;;;;;;;;;5070509;28;24422;-47
2022/06/11 09:36:03;;;;;;;2.38;2.17;;;;;;;;;;5058960;28;24472;-46
2022/06/11 09:38:45;;;;;;;2.25;2.15;;;;;;;;;;5075782;28;24418;-47
2022/06/11 09:41:16;;;;;;;2.47;2.10;;;;;;;;;;5058720;28;24579;-47
2022/06/11 09:43:58;;;;;;;2.23;2.10;;;;;;;;;;5062606;28;24589;-47
2022/06/11 09:46:44;;;;;;;2.10;2.00;;;;;;;;;;5056815;28;24463;-46
2022/06/11 09:49:18;;;;;;;2.30;2.10;;;;;;;;;;5056702;28;24430;-47
2022/06/11 09:52:07;;;;;;;1.90;1.60;;;;;;;;;;5051281;28;24426;-47
2022/06/11 09:54:48;;;;;;;1.73;1.63;;;;;;;;;;5057546;28;24426;-47
2022/06/11 09:57:13;;;;;;;2.00;1.80;;;;;;;;;;5039881;28;24391;-48
2022/06/11 09:59:43;;;;;;;1.80;1.70;;;;;;;;;;5059227;28;24445;-47
2022/06/11 10:04:53;;;;;;;1.65;1.55;;;;;;;;;;5070048;28;24868;-47
2022/06/11 10:07:45;;;;;;;2.20;2.00;;;;;;;;;;5080929;28;24393;-46
2022/06/11 10:10:12;;;;;;;1.90;1.80;;;;;;;;;;5060741;28;24443;-47
2022/06/11 10:12:46;;;;;;;2.47;2.08;;;;;;;;;;5064912;28;25022;-45
2022/06/11 10:15:11;;;;;;;1.73;1.63;;;;;;;;;;5059727;28;24472;-46
2022/06/11 10:17:52;;;;;;;1.80;1.70;;;;;;;;;;5059594;28;24461;-48
2022/06/11 10:20:20;;;;;;;2.88;2.55;;;;;;;;;;5057647;28;24431;-48
2022/06/11 10:22:48;;;;;;;5.25;4.53;;;;;;;;;;5062978;28;24419;-45
2022/06/11 10:25:17;;;;;;;5.30;4.47;;;;;;;;;;5063432;28;24453;-47
2022/06/11 10:27:47;;;;;;;6.40;4.90;;;;;;;;;;5059231;28;24450;-48
2022/06/11 10:30:16;;;;;;;2.40;2.20;;;;;;;;;;5053370;28;24424;-48
2022/06/11 10:32:42;;;;;;;3.20;2.90;;;;;;;;;;5051251;28;24427;-47
2022/06/11 10:35:10;;;;;;;3.10;2.80;;;;;;;;;;5058191;28;24433;-47
2022/06/11 10:37:39;;;;;;;2.13;2.03;;;;;;;;;;5062193;28;24472;-47
2022/06/11 10:40:16;;;;;;;4.07;3.38;;;;;;;;;;5059866;28;24571;-47
2022/06/11 10:42:43;;;;;;;3.10;2.50;;;;;;;;;;5053208;28;24447;-47
2022/06/11 10:45:13;;;;;;;2.60;2.40;;;;;;;;;;5059733;28;24438;-47
2022/06/11 10:47:41;;;;;;;2.50;2.30;;;;;;;;;;5057640;28;24528;-47
2022/06/11 10:50:09;;;;;;;2.40;2.30;;;;;;;;;;5061830;28;24429;-45
2022/06/11 10:52:50;;;;;;;2.03;1.90;;;;;;;;;;5053794;28;24415;-46
2022/06/11 10:55:26;;;;;;;2.08;1.98;;;;;;;;;;5059375;28;24461;-48
2022/06/11 10:57:52;;;;;;;3.88;2.70;;;;;;;;;;5059104;28;24522;-47
2022/06/11 11:00:20;;;;;;;2.15;2.00;;;;;;;;;;5059147;28;24445;-46
2022/06/11 11:02:50;;;;;;;2.70;2.50;;;;;;;;;;5064168;28;24414;-46
2022/06/11 11:05:18;;;;;;;2.35;2.15;;;;;;;;;;5052925;28;24530;-47
2022/06/11 11:07:43;;;;;;;2.50;2.30;;;;;;;;;;5063985;28;24476;-47
2022/06/11 11:10:27;;;;;;;2.20;2.10;;;;;;;;;;5060067;28;24456;-48
2022/06/11 11:12:55;;;;;;;2.13;2.00;;;;;;;;;;5059266;28;24562;-48
2022/06/11 11:15:22;;;;;;;2.10;2.00;;;;;;;;;;5059028;28;24457;-48
2022/06/11 11:17:52;;;;;;;2.10;2.00;;;;;;;;;;5065102;28;24386;-48
2022/06/11 11:20:32;;;;;;;2.70;1.90;;;;;;;;;;5061410;28;24429;-48
2022/06/11 11:23:00;;;;;;;2.60;2.10;;;;;;;;;;5061443;28;24414;-48
2022/06/11 11:25:31;;;;;;;2.80;2.30;;;;;;;;;;5063404;28;24386;-45
2022/06/11 11:27:57;;;;;;;1.90;1.80;;;;;;;;;;5060651;28;24921;-46
2022/06/11 11:30:26;;;;;;;2.17;2.08;;;;;;;;;;5065004;28;24421;-46
2022/06/11 11:32:51;;;;;;;2.10;2.00;;;;;;;;;;5064866;28;24386;-47
2022/06/11 11:35:19;;;;;;;2.10;2.00;;;;;;;;;;5067019;28;24426;-46
2022/06/11 11:37:45;;;;;;;2.00;1.90;;;;;;;;;;5071597;28;25250;-46
2022/06/11 11:40:24;;;;;;;2.20;2.00;;;;;;;;;;5077173;28;24484;-46
2022/06/11 11:42:54;;;;;;;2.30;2.10;;;;;;;;;;5065565;28;24423;-47
2022/06/11 11:45:27;;;;;;;2.00;1.90;;;;;;;;;;5069055;28;25084;-47
2022/06/11 11:47:54;;;;;;;2.00;1.90;;;;;;;;;;5084084;28;24986;-46
2022/06/11 11:50:24;;;;;;;2.40;2.20;;;;;;;;;;5075493;28;24777;-46
2022/06/11 11:52:55;;;;;;;2.10;1.90;;;;;;;;;;5066060;28;24563;-47
2022/06/11 11:55:28;;;;;;;3.10;2.00;;;;;;;;;;5073217;28;25125;-46
2022/06/11 11:58:01;;;;;;;2.50;1.80;;;;;;;;;;5077498;28;24507;-47
2022/06/11 12:00:28;;;;;;;2.15;2.05;;;;;;;;;;5082325;28;24800;-47
2022/06/11 12:02:56;;;;;;;2.30;2.10;;;;;;;;;;5080516;28;24966;-48
2022/06/11 12:05:23;;;;;;;2.30;2.10;;;;;;;;;;5074570;28;24470;-47
2022/06/11 12:07:49;;;;;;;3.10;2.50;;;;;;;;;;5076165;28;25417;-46
2022/06/11 12:10:19;;;;;;;2.10;2.00;;;;;;;;;;5081508;28;24576;-46
2022/06/11 12:12:48;;;;;;;2.20;2.00;;;;;;;;;;5068891;28;24520;-47
2022/06/11 12:15:15;;;;;;;2.17;1.97;;;;;;;;;;5070525;28;25050;-48
2022/06/11 12:17:43;;;;;;;2.50;2.40;;;;;;;;;;5083896;28;24433;-47
2022/06/11 12:20:23;;;;;;;1.90;1.80;;;;;;;;;;5080180;28;25031;-46
2022/06/11 12:22:52;;;;;;;2.00;1.90;;;;;;;;;;5077207;28;24440;-47
2022/06/11 12:25:37;;;;;;;2.00;1.90;;;;;;;;;;5066191;28;24426;-47
2022/06/11 12:28:03;;;;;;;2.10;1.90;;;;;;;;;;5071229;28;25038;-47
2022/06/11 12:30:29;;;;;;;2.90;1.80;;;;;;;;;;5080185;28;24422;-47
2022/06/11 12:32:54;;;;;;;3.40;2.03;;;;;;;;;;5079080;28;25220;-47
2022/06/11 12:35:35;;;;;;;2.10;2.00;;;;;;;;;;5073488;28;24434;-48
2022/06/11 12:38:18;;;;;;;1.80;1.70;;;;;;;;;;5080605;28;24551;-47
2022/06/11 12:40:59;;;;;;;2.10;1.90;;;;;;;;;;5074985;28;24487;-47
2022/06/11 12:43:33;;;;;;;1.70;1.60;;;;;;;;;;5080624;28;25006;-47
2022/06/11 12:46:13;;;;;;;2.00;1.80;;;;;;;;;;5069960;28;24427;-48
2022/06/11 12:48:49;;;;;;;2.10;2.00;;;;;;;;;;5071471;28;24425;-49
2022/06/11 12:51:33;;;;;;;2.45;2.10;;;;;;;;;;5082481;28;24823;-48
2022/06/11 12:54:00;;;;;;;3.28;2.33;;;;;;;;;;5064205;28;24434;-47
2022/06/11 12:56:30;;;;;;;2.70;2.00;;;;;;;;;;5061915;28;24415;-47
2022/06/11 12:59:09;;;;;;;2.45;2.25;;;;;;;;;;5064014;28;24438;-47
2022/06/11 13:01:43;;;;;;;1.92;1.83;;;;;;;;;;5064364;28;24399;-47
2022/06/11 13:04:08;;;;;;;2.20;2.00;;;;;;;;;;5062107;28;25321;-48
2022/06/11 13:06:33;;;;;;;2.00;1.90;;;;;;;;;;5062934;28;25348;-47
2022/06/11 13:09:17;;;;;;;2.10;1.90;;;;;;;;;;5055333;28;24943;-48
2022/06/11 13:12:00;;;;;;;2.30;2.20;;;;;;;;;;5072184;28;25014;-47
2022/06/11 13:14:43;;;;;;;1.90;1.80;;;;;;;;;;5070484;28;24430;-47
2022/06/11 13:17:24;;;;;;;2.65;2.42;;;;;;;;;;5063006;28;24844;-47
2022/06/11 13:20:08;;;;;;;2.00;1.90;;;;;;;;;;5063594;28;25059;-47
2022/06/11 13:22:43;;;;;;;2.40;2.20;;;;;;;;;;5041596;28;24651;-48
2022/06/11 13:25:24;;;;;;;2.17;2.08;;;;;;;;;;5045702;28;24479;-48
2022/06/11 13:27:49;;;;;;;1.85;1.75;;;;;;;;;;5055037;28;24884;-47
2022/06/11 13:30:17;;;;;;;2.70;2.10;;;;;;;;;;5070954;28;24490;-47
2022/06/11 13:32:47;;;;;;;2.10;2.00;;;;;;;;;;5067877;28;24458;-47
2022/06/11 13:35:31;;;;;;;2.45;2.25;;;;;;;;;;5056405;28;24512;-47
2022/06/11 13:38:03;;;;;;;2.13;2.03;;;;;;;;;;5054238;28;24480;-47
2022/06/11 13:40:35;;;;;;;2.03;1.80;;;;;;;;;;5072859;28;24521;-48
2022/06/11 13:43:03;;;;;;;2.67;2.00;;;;;;;;;;5076246;28;25120;-48
2022/06/11 13:45:31;;;;;;;1.92;1.83;;;;;;;;;;5056682;28;25171;-47
2022/06/11 13:48:16;;;;;;;2.10;2.00;;;;;;;;;;5059190;28;24434;-47
2022/06/11 13:51:03;;;;;;;2.30;2.10;;;;;;;;;;5061088;28;24391;-48
2022/06/11 13:56:38;;;;;;;2.83;2.20;;;;;;;;;;5061005;28;24509;-47
2022/06/11 13:59:31;;;;;;;2.00;1.90;;;;;;;;;;5047537;28;24426;-48
2022/06/11 14:02:08;;;;;;;2.23;2.10;;;;;;;;;;5028513;28;24414;-47
2022/06/11 14:04:35;;;;;;;2.40;2.20;;;;;;;;;;5060383;28;24428;-47
2022/06/11 14:07:04;;;;;;;2.47;2.30;;;;;;;;;;5062381;28;24437;-47
2022/06/11 14:12:35;;;;;;;2.22;2.13;;;;;;;;;;5057477;28;25026;-47
2022/06/11 14:15:25;;;;;;;2.10;2.00;;;;;;;;;;5033493;28;24442;-47
2022/06/11 14:17:52;;;;;;;2.10;1.90;;;;;;;;;;5056911;28;24477;-47
2022/06/11 14:20:25;;;;;;;2.95;2.20;;;;;;;;;;5060204;28;24476;-48
2022/06/11 14:22:52;;;;;;;1.90;1.80;;;;;;;;;;5062586;28;24518;-47
2022/06/11 14:25:34;;;;;;;2.50;2.20;;;;;;;;;;5057765;28;24468;-47
2022/06/11 14:28:23;;;;;;;2.92;2.40;;;;;;;;;;5062057;28;24757;-49
2022/06/11 14:30:48;;;;;;;2.00;1.90;;;;;;;;;;5036574;28;24497;-46
2022/06/11 14:33:13;;;;;;;1.83;1.73;;;;;;;;;;5058435;28;24549;-47
2022/06/11 14:35:48;;;;;;;1.80;1.70;;;;;;;;;;5060676;28;24418;-47
2022/06/11 14:38:32;;;;;;;1.70;1.60;;;;;;;;;;5060169;28;24403;-47
2022/06/11 14:41:09;;;;;;;1.80;1.70;;;;;;;;;;5061803;28;24406;-47
2022/06/11 14:43:52;;;;;;;2.23;2.13;;;;;;;;;;5061185;28;24472;-47
2022/06/11 14:46:33;;;;;;;2.80;2.00;;;;;;;;;;5059077;28;24426;-48
2022/06/11 14:48:59;;;;;;;2.30;2.10;;;;;;;;;;5060498;28;24752;-46
2022/06/11 14:51:28;;;;;;;2.00;1.90;;;;;;;;;;5061817;28;24394;-45
2022/06/11 14:54:03;;;;;;;2.40;2.20;;;;;;;;;;5065722;28;24458;-47
2022/06/11 14:56:28;;;;;;;2.00;1.90;;;;;;;;;;5065163;28;24442;-46
2022/06/11 14:59:14;;;;;;;1.90;1.80;;;;;;;;;;5065417;28;24465;-47
2022/06/11 15:01:49;;;;;;;2.28;2.00;;;;;;;;;;5051758;28;24510;-47
2022/06/11 15:04:30;;;;;;;2.10;1.90;;;;;;;;;;5059487;28;24453;-47
2022/06/11 15:07:21;;;;;;;2.43;1.97;;;;;;;;;;5064059;28;24437;-47